• Join FlightAware (Why Join?)
  • Login
  • US Flag GB Flag 
20:41 EST


 

Airport Tracker/Info


-or-


 

Live Flight TrackerFlight Track Log ✈ CPZ5714 ✈ 29-Jun-2013 ✈ KMSP - KALB

Flight Track Log - Related Links

Times and Time Zones

All times are in EDT time to prevent confusion due to time zone crossing. See the CPZ5714 flight status page for this flight to view local times or setup timezone preferences in your user account.

Time Position Orientation Groundspeed Altitude Reporting Facility
EDT Latitude Longitude Course Direction KTS MPH feet Rate Location/Type
20:45 44.9333 -93.2667 70° East 184 212 3,000  Level Minneapolis TRACON
20:46 44.9833 -93.3000 335° Northwest 209 241 5,700 2,340 Climbing Minneapolis TRACON
20:47 45.0167 -93.2500 47° Northeast 251 289 7,300 2,220 Climbing Minneapolis TRACON
20:48 45.0303 -92.6523 68° East  Level FlightAware Approximate
20:49 45.0708 -92.5106 68° East  Level FlightAware Approximate
20:49 45.0667 -93.1042 64° Northeast 273 314 10,900  Level Minneapolis Center
20:50 45.1043 -92.3661 70° East  Level FlightAware Approximate
20:50 45.1025 -92.9831 67° East 329 379 12,700  Level Minneapolis Center
20:51 45.1409 -92.2201 70° East  Level FlightAware Approximate
20:51 45.1392 -92.8575 67° East 345 397 15,000  Level Minneapolis Center
20:52 45.1764 -92.7278 68° East 354 407 17,200 1,920 Climbing Minneapolis Center
20:53 45.2136 -92.5972 68° East 356 410 19,000 1,680 Climbing Minneapolis Center
20:54 45.2550 -92.4578 67° East 379 436 20,700 1,560 Climbing Minneapolis Center
20:55 45.2961 -92.3128 68° East 394 453 22,300 1,560 Climbing Minneapolis Center
20:56 45.3250 -92.1242 78° East 408 470 23,900 1,440 Climbing Minneapolis Center
20:57 45.3489 -91.9611 78° East 420 483 25,300 1,200 Climbing Minneapolis Center
20:58 45.3497 -91.7911 90° East 436 502 26,500 1,080 Climbing Minneapolis Center
20:59 45.3450 -91.6206 92° East 435 501 27,600 1,020 Climbing Minneapolis Center
21:00 45.3386 -91.4456 93° East 441 507 28,600 1,200 Climbing Minneapolis Center
21:01 45.3053 -91.2792 106° East 437 503 30,100 1,380 Climbing Minneapolis Center
21:02 45.2656 -91.1028 108° East 433 498 31,500 1,200 Climbing Minneapolis Center
21:03 45.2281 -90.9439 108° East 429 494 32,600 720 Climbing Minneapolis Center
21:04 45.1919 -90.7881 108° East 423 487 33,000 180 Climbing Minneapolis Center
21:05 45.1494 -90.6006 108° East 419 482 33,000  Level Minneapolis Center
21:06 45.1131 -90.4453 108° East 417 480 33,000  Level Minneapolis Center
21:07 45.0761 -90.2908 109° East 417 480 33,000  Level Minneapolis Center
21:08 45.0628 -90.1278 97° East 420 483 33,000  Level Minneapolis Center
21:09 45.0536 -89.9636 94° East 421 484 33,000  Level Minneapolis Center
21:10 45.0433 -89.7956 95° East 429 494 33,000  Level Minneapolis Center
21:11 45.0319 -89.6194 95° East 426 490 33,000  Level Minneapolis Center
21:12 45.0214 -89.4522 95° East 427 491 33,000  Level Minneapolis Center
21:13 45.0119 -89.2839 94° East 427 491 33,000  Level Minneapolis Center
21:14 44.9983 -89.0878 96° East 429 494 33,000 540 Level Minneapolis Center
21:15 44.9875 -88.9186 95° East 432 497 34,200 960 Climbing Minneapolis Center
21:16 44.9756 -88.7575 96° East 418 481 35,000 360 Climbing Minneapolis Center
21:17 44.9642 -88.5925 96° East 420 483 35,000  Level Minneapolis Center
21:18 44.9519 -88.4211 96° East 435 501 35,000  Level Minneapolis Center
21:19 44.9378 -88.2350 96° East 441 507 35,000  Level Minneapolis Center
21:20 44.9261 -88.0622 95° East 442 509 35,000  Level Minneapolis Center
21:22 44.9125 -87.8911 96° East 441 507 35,000  Level Minneapolis Center
21:23 44.8992 -87.7208 96° East 439 505 35,000  Level Minneapolis Center
21:24 44.8850 -87.5492 97° East 441 507 35,000  Level Minneapolis Center
21:25 44.8703 -87.3778 97° East 443 510 35,000  Level Minneapolis Center
21:26 44.8531 -87.1714 97° East 443 510 35,000  Level Minneapolis Center
21:27 44.8389 -86.9994 97° East 444 511 35,000  Level Minneapolis Center
21:28 44.8244 -86.8283 97° East 442 509 35,000  Level Minneapolis Center
21:29 44.8097 -86.6600 97° East 447 514 35,000  Level Minneapolis Center
21:30 44.7942 -86.4878 97° East 446 513 35,000  Level Minneapolis Center
21:31 44.7783 -86.3153 97° East 445 512 35,000  Level Minneapolis Center
21:32 44.7622 -86.1436 97° East 444 511 35,000  Level Minneapolis Center
21:33 44.7425 -85.9353 98° East 445 512 35,000  Level Minneapolis Center
21:34 44.7264 -85.7628 97° East 446 513 35,000  Level Minneapolis Center
21:35 44.7106 -85.6017 98° East 447 514 35,000  Level Minneapolis Center
21:36 44.6942 -85.4286 98° East 447 514 35,000  Level Minneapolis Center
21:37 44.6767 -85.2569 98° East 446 513 35,000  Level Minneapolis Center
21:38 44.6556 -85.0503 98° East 446 513 35,000  Level Minneapolis Center
21:39 44.6381 -84.8778 98° East 447 514 35,000  Level Minneapolis Center
21:40 44.6192 -84.7044 99° East 449 517 35,000  Level Minneapolis Center
21:41 44.6019 -84.5328 98° East 447 514 35,000  Level Minneapolis Center
21:42 44.5831 -84.3597 99° East 449 517 35,000  Level Minneapolis Center
21:43 44.5642 -84.1858 99° East 451 519 35,000  Level Minneapolis Center
21:44 44.5458 -84.0128 98° East 451 519 35,000  Level Minneapolis Center
21:45 44.5247 -83.8403 100° East 450 518 35,000  Level Minneapolis Center
21:46 44.5050 -83.6675 99° East 451 519 35,000  Level Minneapolis Center
21:47 44.4819 -83.4603 99° East 450 518 35,000  Level Minneapolis Center
21:48 44.4617 -83.2881 99° East 451 519 35,000  Level Minneapolis Center
21:49 44.4400 -83.1161 100° East 450 518 35,000  Level Minneapolis Center
21:50 44.4189 -82.9439 100° East 450 518 35,000  Level Minneapolis Center
21:51 44.3997 -82.7714 99° East 450 518 35,000  Level Minneapolis Center
21:52 44.3778 -82.5997 100° East 449 517 35,000  Level Minneapolis Center
21:53 44.3500 -82.4833 108° East 450 518 35,000  Level Toronto Center
21:54 44.3333 -82.3167 98° East 450 518 35,000  Level Toronto Center
21:55 44.2833 -82.1500 113° Southeast 450 518 35,000  Level Toronto Center
21:56 44.2500 -81.9833 106° East 450 518 35,000  Level Toronto Center
21:57 44.2167 -81.8167 106° East 450 518 35,000  Level Toronto Center
21:58 44.1667 -81.6500 113° Southeast 450 518 35,000  Level Toronto Center
21:59 44.1333 -81.4667 104° East 450 518 35,000  Level Toronto Center
22:00 44.0833 -81.3333 118° Southeast 450 518 35,000  Level Toronto Center
22:01 44.0500 -81.1667 105° East 450 518 35,000  Level Toronto Center
22:02 44.0000 -81.0000 113° Southeast 450 518 35,000  Level Toronto Center
22:03 43.9667 -80.8167 104° East 450 518 35,000  Level Toronto Center
22:04 43.9333 -80.6667 107° East 450 518 35,000  Level Toronto Center
22:05 43.8833 -80.4833 111° Southeast 450 518 35,000  Level Toronto Center
22:06 43.8500 -80.3500 109° East 450 518 35,000  Level Toronto Center
22:07 43.8000 -80.1833 113° Southeast 450 518 35,000  Level Toronto Center
22:08 43.7500 -80.0333 115° Southeast 450 518 35,000  Level Toronto Center
22:09 43.7167 -79.8667 105° East 450 518 35,000  Level Toronto Center
22:10 43.6667 -79.7000 112° Southeast 450 518 35,000  Level Toronto Center
22:11 43.6333 -79.5167 104° East 460 529 35,000  Level Toronto Center
22:12 43.6167 -79.3500 98° East 460 529 35,000  Level Toronto Center
22:13 43.6000 -79.1667 97° East 460 529 35,000  Level Toronto Center
22:14 43.5667 -78.9833 104° East 470 541 35,000  Level Toronto Center
22:15 43.5500 -78.8333 99° East 470 541 35,000  Level Toronto Center
22:16 43.5333 -78.6667 98° East 460 529 35,000  Level Toronto Center
22:17 43.4833 -78.4833 111° Southeast 470 541 35,000  Level Toronto Center
22:18 43.4667 -78.3000 97° East 470 541 35,000  Level Toronto Center
22:18 43.4678 -78.2292 89° East 469 540 35,000  Level Cleveland Center
22:19 43.4433 -78.0556 101° East 469 540 35,000 -120 Level Cleveland Center
22:20 43.4186 -77.8794 101° East 469 540 34,800 -600 Descending Cleveland Center
22:21 43.3936 -77.7033 101° East 469 540 33,800 -1,020 Descending Cleveland Center
22:24 43.3167 -77.2333 103° East 480 552 31,300 -1,080 Descending Toronto Center
22:25 43.2833 -77.0500 104° East 480 552 30,200 -1,020 Descending Toronto Center
22:26 43.2667 -76.8667 97° East 480 552 29,300 -600 Descending Toronto Center
22:27 43.2333 -76.6833 104° East 480 552 29,000 -180 Descending Toronto Center
22:28 43.2000 -76.5167 105° East 480 552 29,000  Level Toronto Center
22:29 43.1789 -76.3042 98° East 478 550 29,000  Level Boston Center
22:30 43.1494 -76.1258 103° East 478 550 29,000  Level Boston Center
22:31 43.1219 -75.9450 102° East 478 550 29,000  Level Boston Center
22:32 43.0917 -75.7697 103° East 478 550 29,000  Level Boston Center
22:33 43.0614 -75.5919 103° East 473 544 29,000 -600 Level Boston Center
22:34 43.0306 -75.4111 103° East 479 551 27,900 -2,100 Descending Boston Center
22:35 43.0017 -75.2394 103° East 469 540 24,800 -3,000 Descending Boston Center
22:36 42.9742 -75.0792 103° East 455 524 21,900 -2,880 Descending Boston Center
22:37 42.9486 -74.9222 102° East 436 502 19,100 -2,700 Descending Boston Center
22:38 42.9244 -74.7878 104° East 414 476 16,500 -2,700 Descending Boston Center
22:39 42.8961 -74.6308 104° East 386 444 13,700 -2,580 Descending Boston Center
22:40 42.8756 -74.5111 103° East 372 428 11,400 -1,440 Descending Boston Center
22:41 42.8767 -74.3214 89° East 356 410 10,400 -960 Descending Boston Center
22:42 42.8617 -74.2161 101° East 330 380 9,400 -1,200 Descending Boston Center
22:43 42.8447 -74.1022 101° East 312 359 8,200 -1,380 Descending Boston Center
22:44 42.8356 -74.0058 97° East 300 345 6,700 -2,100 Descending Boston Center
22:45 42.8789 -73.8936 62° Northeast 275 316 4,100 -2,100 Descending Boston Center
22:46 42.8650 -73.8225 105° East 255 293 2,600 -1,500 Descending Boston Center